Time;durP1;ratioP1;P1;durP2;ratioP2;P2;SDS_P1;SDS_P2;PMS_P1;PMS_P2;Temp;Humidity;BMP_temperature;BMP_pressure;BME280_temperature;BME280_humidity;BME280_pressure;Samples;Min_cycle;Max_cycle;Signal;HPM_P1;HPM_P2
2022/01/14 00:00:03;;;;;;;60.80;26.17;;;;;;;5.23;95.38;103815.00;5094376;28;20471;-70
2022/01/14 00:02:28;;;;;;;66.20;26.20;;;;;;;5.19;95.34;103816.22;5094071;28;20036;-69
2022/01/14 00:04:54;;;;;;;61.17;24.42;;;;;;;5.21;95.29;103816.09;5092659;28;20491;-70
2022/01/14 00:07:20;;;;;;;65.85;26.73;;;;;;;5.35;95.18;103806.06;5093997;28;20379;-68
2022/01/14 00:09:47;;;;;;;76.05;27.30;;;;;;;5.30;95.48;103807.41;5094074;28;20035;-68
2022/01/14 00:12:17;;;;;;;56.30;21.08;;;;;;;5.24;95.80;103814.06;5094387;28;20030;-70
2022/01/14 00:14:56;;;;;;;83.97;27.75;;;;;;;5.28;95.32;103812.84;5094535;28;20036;-70
2022/01/14 00:17:22;;;;;;;73.03;27.25;;;;;;;5.32;95.22;103808.13;5094142;28;20553;-69
2022/01/14 00:19:47;;;;;;;57.90;24.42;;;;;;;5.29;95.77;103817.22;5093991;28;20044;-70
2022/01/14 00:22:15;;;;;;;80.15;27.13;;;;;;;5.32;95.85;103802.78;5093533;28;20032;-69
2022/01/14 00:35:27;;;;;;;61.92;25.20;;;;;;;5.29;95.93;103792.34;5093128;28;20032;-71
2022/01/14 00:37:52;;;;;;;62.33;26.00;;;;;;;5.33;96.20;103794.69;5091988;28;20032;-70
2022/01/14 00:40:18;;;;;;;65.00;25.48;;;;;;;5.34;96.28;103790.19;5090612;28;20043;-70
2022/01/14 00:42:44;;;;;;;69.10;22.85;;;;;;;5.31;96.53;103782.41;5093024;28;20069;-69
2022/01/14 00:45:11;;;;;;;75.40;27.15;;;;;;;5.28;96.49;103775.53;5092855;28;20040;-70
2022/01/14 00:47:37;;;;;;;65.22;23.65;;;;;;;5.35;95.56;103782.06;5093353;28;20543;-70
2022/01/14 00:50:12;;;;;;;63.85;28.48;;;;;;;5.38;96.05;103777.47;5093326;28;20388;-71
2022/01/14 00:52:39;;;;;;;68.50;26.10;;;;;;;5.41;95.44;103779.88;5093322;28;20036;-70
2022/01/14 00:55:07;;;;;;;62.80;24.70;;;;;;;5.43;96.20;103776.13;5093188;28;20036;-70
2022/01/14 01:00:19;;;;;;;71.43;26.98;;;;;;;5.46;95.44;103770.59;5093393;28;20030;-70
2022/01/14 01:02:44;;;;;;;73.80;26.77;;;;;;;5.46;95.71;103769.72;5093465;28;20043;-71
2022/01/14 01:05:13;;;;;;;78.80;28.35;;;;;;;5.50;95.38;103771.19;5093046;28;20556;-70
2022/01/14 01:07:43;;;;;;;77.47;26.95;;;;;;;5.48;95.79;103759.78;5092891;28;20036;-70
2022/01/14 01:10:10;;;;;;;76.03;25.73;;;;;;;5.51;95.90;103759.53;5092985;28;20047;-68
2022/01/14 01:12:47;;;;;;;72.03;28.20;;;;;;;5.48;96.19;103768.66;5091617;28;20032;-68
2022/01/14 01:15:15;;;;;;;73.90;27.98;;;;;;;5.54;95.83;103762.81;5093004;28;20058;-70
2022/01/14 01:17:41;;;;;;;63.90;25.33;;;;;;;5.56;95.91;103762.69;5093596;28;20070;-70
2022/01/14 01:20:11;;;;;;;70.82;26.23;;;;;;;5.60;95.65;103759.66;5092888;28;20040;-68
2022/01/14 01:22:36;;;;;;;67.15;26.15;;;;;;;5.50;95.61;103757.84;5092796;28;20081;-70
2022/01/14 01:25:02;;;;;;;71.13;27.23;;;;;;;5.58;95.65;103755.44;5092877;28;20043;-69
2022/01/14 01:27:28;;;;;;;63.05;25.65;;;;;;;5.53;95.58;103765.59;5093274;28;20032;-70
2022/01/14 01:30:10;;;;;;;58.90;24.17;;;;;;;5.53;95.71;103762.94;5093211;28;20047;-68
2022/01/14 01:32:36;;;;;;;71.88;26.30;;;;;;;5.52;95.51;103754.09;5093405;28;20184;-70
2022/01/14 01:35:01;;;;;;;66.00;26.65;;;;;;;5.65;94.92;103753.97;5092766;28;20024;-70
2022/01/14 01:37:26;;;;;;;72.88;28.30;;;;;;;5.67;95.17;103750.22;5092377;28;20036;-69
2022/01/14 01:39:52;;;;;;;84.28;28.70;;;;;;;5.65;94.94;103752.16;5092271;28;20116;-69
2022/01/14 01:42:23;;;;;;;68.85;27.88;;;;;;;5.64;95.36;103757.63;5092816;28;20115;-70
2022/01/14 01:44:50;;;;;;;73.10;26.80;;;;;;;5.59;95.77;103747.28;5093021;28;20028;-70
2022/01/14 01:47:15;;;;;;;65.18;27.52;;;;;;;5.52;95.71;103753.25;5091797;28;20052;-69
2022/01/14 01:49:40;;;;;;;69.35;26.85;;;;;;;5.54;95.70;103754.81;5092579;28;20523;-69
2022/01/14 01:52:06;;;;;;;68.00;25.75;;;;;;;5.50;95.97;103750.72;5092484;28;20037;-69
2022/01/14 01:54:32;;;;;;;77.72;28.58;;;;;;;5.44;95.45;103745.00;5092525;28;20040;-69
2022/01/14 01:56:57;;;;;;;63.15;26.35;;;;;;;5.46;96.04;103743.06;5092671;28;20024;-70
2022/01/14 01:59:24;;;;;;;78.30;31.20;;;;;;;5.55;96.14;103745.00;5093006;28;20400;-70
2022/01/14 02:01:51;;;;;;;70.05;28.50;;;;;;;5.55;95.39;103745.84;5092640;28;20040;-69
2022/01/14 02:04:18;;;;;;;63.30;25.48;;;;;;;5.50;96.04;103755.19;5092453;28;20039;-69
2022/01/14 02:06:43;;;;;;;64.20;26.50;;;;;;;5.50;95.53;103744.50;5091048;28;20043;-69
2022/01/14 02:09:09;;;;;;;68.05;28.23;;;;;;;5.55;95.23;103745.84;5092207;28;20032;-70
2022/01/14 02:11:35;;;;;;;70.95;26.48;;;;;;;5.48;96.02;103754.44;5092917;28;20042;-68
2022/01/14 02:14:05;;;;;;;71.35;28.02;;;;;;;5.57;95.93;103759.03;5092273;28;20036;-69
2022/01/14 02:16:47;;;;;;;70.88;28.48;;;;;;;5.58;95.25;103756.25;5092519;28;20040;-69
2022/01/14 02:19:23;;;;;;;74.35;27.27;;;;;;;5.59;95.10;103741.97;5092382;28;20364;-70
2022/01/14 02:22:10;;;;;;;67.65;27.98;;;;;;;5.50;95.30;103741.84;5090775;28;20036;-69
2022/01/14 02:27:05;;;;;;;61.78;27.50;;;;;;;5.53;95.01;103738.91;5094448;28;20123;-69
2022/01/14 02:29:30;;;;;;;70.57;27.75;;;;;;;5.54;94.96;103741.50;5096834;28;20116;-69
2022/01/14 02:31:56;;;;;;;72.78;26.17;;;;;;;5.41;95.83;103734.56;5096282;28;20039;-69
2022/01/14 02:34:21;;;;;;;74.60;26.63;;;;;;;5.46;95.79;103738.59;5096022;28;20055;-69
2022/01/14 02:36:47;;;;;;;70.63;26.70;;;;;;;5.42;95.80;103731.78;5095945;28;20047;-69
2022/01/14 02:39:16;;;;;;;68.07;24.35;;;;;;;5.41;96.25;103730.06;5094237;28;20399;-69
2022/01/14 02:41:44;;;;;;;66.88;25.42;;;;;;;5.39;96.19;103732.00;5095913;28;20048;-70
2022/01/14 02:44:17;;;;;;;78.80;30.33;;;;;;;5.44;95.88;103732.53;5095383;28;20043;-69
2022/01/14 02:46:49;;;;;;;67.45;26.70;;;;;;;5.41;95.58;103737.22;5094795;28;20132;-70
2022/01/14 02:49:15;;;;;;;77.43;28.08;;;;;;;5.37;95.83;103731.28;5095682;28;20119;-71
2022/01/14 02:51:40;;;;;;;68.32;26.13;;;;;;;5.24;96.19;103728.75;5095701;28;20074;-70
2022/01/14 02:54:15;;;;;;;68.75;26.30;;;;;;;5.27;95.94;103724.97;5095644;28;20070;-70
2022/01/14 02:56:47;;;;;;;71.75;28.23;;;;;;;5.22;96.41;103721.84;5096113;28;20413;-69
2022/01/14 02:59:15;;;;;;;82.28;28.42;;;;;;;5.27;96.21;103728.50;5096159;28;20061;-69
2022/01/14 03:01:41;;;;;;;79.55;29.65;;;;;;;5.27;96.39;103720.50;5095859;28;20043;-69
2022/01/14 03:04:07;;;;;;;80.40;25.75;;;;;;;5.25;95.97;103703.78;5095388;28;20032;-69
2022/01/14 03:06:33;;;;;;;75.22;26.70;;;;;;;5.18;96.71;103705.25;5095024;28;20051;-68
2022/01/14 03:08:59;;;;;;;51.80;20.10;;;;;;;5.15;96.16;103705.47;5086289;28;20037;-70
2022/01/14 03:11:39;;;;;;;69.82;26.20;;;;;;;5.22;96.71;103704.03;5075807;28;20060;-69
2022/01/14 03:14:05;;;;;;;80.97;26.85;;;;;;;5.15;96.56;103696.63;5074824;28;20467;-70
2022/01/14 03:16:37;;;;;;;72.38;23.75;;;;;;;5.18;96.65;103707.91;5074994;28;20037;-70
2022/01/14 03:19:11;;;;;;;77.50;25.98;;;;;;;5.22;97.26;103705.84;5075007;28;20491;-70
2022/01/14 03:21:40;;;;;;;78.78;26.83;;;;;;;5.20;96.37;103705.13;5081238;28;20078;-69
2022/01/14 03:26:41;;;;;;;81.85;27.13;;;;;;;5.18;96.71;103704.38;5095621;28;20118;-69
2022/01/14 03:29:07;;;;;;;76.90;26.23;;;;;;;5.26;96.55;103705.50;5094799;28;20028;-68
2022/01/14 03:31:32;;;;;;;68.13;25.20;;;;;;;5.26;97.39;103709.97;5094724;28;20540;-68
2022/01/14 03:33:57;;;;;;;83.97;26.63;;;;;;;5.27;96.61;103709.84;5095042;28;20044;-69
2022/01/14 03:36:23;;;;;;;79.10;27.23;;;;;;;5.25;96.52;103700.25;5094716;28;20067;-68
2022/01/14 03:38:48;;;;;;;89.82;26.90;;;;;;;5.30;96.74;103701.63;5092858;28;20058;-70
2022/01/14 03:41:14;;;;;;;85.47;26.40;;;;;;;5.32;96.32;103698.81;5094968;28;20398;-71
2022/01/14 03:43:41;;;;;;;85.03;27.52;;;;;;;5.26;96.66;103702.81;5094784;28;20169;-69
2022/01/14 03:46:06;;;;;;;66.13;21.38;;;;;;;5.23;97.38;103703.03;5093355;28;20032;-72
2022/01/14 03:48:32;;;;;;;74.88;25.15;;;;;;;5.35;96.45;103704.75;5094235;28;20050;-70
2022/01/14 03:50:58;;;;;;;88.10;26.33;;;;;;;5.30;96.71;103698.09;5094508;28;20067;-70
2022/01/14 03:53:23;;;;;;;74.75;21.13;;;;;;;5.33;96.82;103695.16;5094895;28;20055;-69
2022/01/14 03:55:49;;;;;;;77.25;25.77;;;;;;;5.32;96.89;103696.16;5094393;28;20066;-71
2022/01/14 03:58:14;;;;;;;82.18;26.30;;;;;;;5.32;96.42;103696.16;5094317;28;20098;-69
2022/01/14 04:00:40;;;;;;;69.30;24.80;;;;;;;5.32;96.36;103699.69;5094227;28;20056;-71
2022/01/14 04:03:06;;;;;;;91.70;25.77;;;;;;;5.44;96.19;103697.84;5094247;28;20035;-68
2022/01/14 04:05:32;;;;;;;94.97;26.15;;;;;;;5.40;97.00;103683.06;5094787;28;20039;-69
2022/01/14 04:07:58;;;;;;;75.65;24.60;;;;;;;5.41;96.13;103684.75;5093858;28;20048;-70
2022/01/14 04:10:25;;;;;;;82.47;25.90;;;;;;;5.30;97.24;103687.44;5094064;28;20036;-69
2022/01/14 04:12:58;;;;;;;86.15;24.80;;;;;;;5.81;94.44;103677.06;5094077;28;20028;-70
2022/01/14 04:15:39;;;;;;;80.18;25.85;;;;;;;5.83;93.92;103673.34;5092503;28;20032;-70
2022/01/14 04:18:07;;;;;;;;;;;;;;;5.88;93.87;103670.28;5094529;28;20024;-69
2022/01/14 04:20:34;;;;;;;87.43;22.15;;;;;;;5.99;93.59;103679.13;5094002;28;19912;-68
2022/01/14 04:23:00;;;;;;;71.32;25.05;;;;;;;6.17;92.45;103661.56;5093911;28;20052;-69
2022/01/14 04:25:26;;;;;;;79.15;24.08;;;;;;;6.14;92.86;103664.50;5091961;28;20036;-70
2022/01/14 04:27:51;;;;;;;85.22;25.30;;;;;;;5.57;95.11;103673.69;5093631;28;20527;-69
2022/01/14 04:30:18;;;;;;;79.40;24.48;;;;;;;5.34;96.02;103659.56;5093660;28;20540;-69
2022/01/14 04:32:44;;;;;;;90.55;26.95;;;;;;;5.31;97.16;103652.66;5094196;28;20494;-69
2022/01/14 04:35:09;;;;;;;100.10;26.38;;;;;;;5.21;96.99;103669.47;5093662;28;20040;-69
2022/01/14 04:37:35;;;;;;;81.57;24.33;;;;;;;5.28;96.90;103670.69;5093618;28;20051;-70
2022/01/14 04:40:02;;;;;;;77.38;24.45;;;;;;;5.26;97.43;103654.84;5093176;28;20028;-69
2022/01/14 04:42:29;;;;;;;79.18;26.48;;;;;;;5.30;96.53;103653.63;5093439;28;20040;-71
2022/01/14 04:44:55;;;;;;;89.85;26.80;;;;;;;5.32;96.78;103654.34;5093743;28;20030;-70
2022/01/14 04:47:34;;;;;;;78.78;25.33;;;;;;;5.35;96.24;103661.25;5093847;28;20503;-70
2022/01/14 04:50:00;;;;;;;88.15;25.85;;;;;;;5.45;96.79;103654.19;5092794;28;20032;-71
2022/01/14 04:52:28;;;;;;;95.20;26.73;;;;;;;5.38;96.28;103646.81;5093256;28;20040;-69
2022/01/14 04:54:55;;;;;;;81.70;28.13;;;;;;;5.36;96.01;103650.44;5093161;28;20116;-70
2022/01/14 04:57:21;;;;;;;90.60;24.73;;;;;;;6.20;92.67;103660.47;5092986;28;20029;-68
2022/01/14 04:59:49;;;;;;;75.25;24.48;;;;;;;6.60;90.89;103658.81;5092972;28;20110;-69
2022/01/14 05:02:14;;;;;;;84.55;27.08;;;;;;;5.84;92.85;103653.66;5077985;28;20036;-70
2022/01/14 05:04:41;;;;;;;70.13;22.52;;;;;;;5.43;95.01;103656.13;5072631;28;20032;-69
2022/01/14 05:07:10;;;;;;;90.13;25.52;;;;;;;5.44;95.48;103649.84;5072621;28;20032;-70
2022/01/14 05:09:40;;;;;;;75.13;24.33;;;;;;;5.35;96.01;103658.56;5084646;28;20042;-69
2022/01/14 05:12:09;;;;;;;79.72;27.30;;;;;;;5.42;96.26;103645.59;5092896;28;20035;-71
2022/01/14 05:14:35;;;;;;;93.13;27.15;;;;;;;5.35;96.23;103651.44;5093308;28;20552;-69
2022/01/14 05:17:01;;;;;;;80.80;25.35;;;;;;;5.39;96.05;103649.34;5091998;28;20032;-70
2022/01/14 05:19:26;;;;;;;85.20;26.27;;;;;;;5.35;96.75;103647.91;5092624;28;20506;-70
2022/01/14 05:21:52;;;;;;;81.45;26.92;;;;;;;5.35;96.50;103653.25;5092973;28;20081;-69
2022/01/14 05:24:17;;;;;;;84.75;28.48;;;;;;;5.39;96.64;103649.34;5090864;28;20032;-70
2022/01/14 05:26:43;;;;;;;98.53;29.63;;;;;;;5.30;96.21;103663.44;5093555;28;20044;-71
2022/01/14 05:29:08;;;;;;;80.85;28.10;;;;;;;5.36;96.20;103655.78;5092599;28;20039;-70
2022/01/14 05:31:44;;;;;;;78.60;25.92;;;;;;;5.39;95.81;103638.69;5092919;28;20055;-70
2022/01/14 05:34:09;;;;;;;76.40;25.13;;;;;;;5.44;95.55;103635.66;5090902;28;20047;-71
2022/01/14 05:36:35;;;;;;;96.82;28.23;;;;;;;5.41;95.76;103631.41;5092499;28;20483;-70
2022/01/14 05:39:02;;;;;;;82.97;26.55;;;;;;;5.35;96.49;103634.56;5092066;28;20034;-69
2022/01/14 05:41:27;;;;;;;81.75;26.70;;;;;;;5.41;95.70;103626.09;5092982;28;20063;-69
2022/01/14 05:43:52;;;;;;;79.65;25.05;;;;;;;5.43;95.88;103624.16;5092694;28;20067;-71
2022/01/14 05:46:17;;;;;;;76.03;25.77;;;;;;;5.32;96.70;103624.16;5092431;28;20123;-69
2022/01/14 05:48:43;;;;;;;95.72;28.77;;;;;;;6.06;94.28;103621.56;5092378;28;20120;-69
2022/01/14 05:51:08;;;;;;;69.97;27.33;;;;;;;6.56;90.95;103620.00;5092391;28;20028;-70
2022/01/14 05:53:34;;;;;;;69.97;25.42;;;;;;;6.65;89.95;103615.66;5092333;28;20078;-68
2022/01/14 05:55:59;;;;;;;73.85;27.70;;;;;;;6.73;89.06;103613.19;5092364;28;20390;-70
2022/01/14 05:58:24;;;;;;;70.70;25.55;;;;;;;6.79;88.78;103601.97;5092302;28;20122;-69
2022/01/14 06:00:50;;;;;;;66.68;20.48;;;;;;;7.06;87.31;103602.22;5092635;28;20107;-68
2022/01/14 06:03:15;;;;;;;76.57;24.55;;;;;;;7.28;85.75;103595.81;5096450;28;20119;-70
2022/01/14 06:05:40;;;;;;;69.90;25.23;;;;;;;7.40;85.42;103595.59;5096987;28;20073;-69
2022/01/14 06:08:06;;;;;;;75.10;27.27;;;;;;;7.41;85.27;103594.59;5096070;28;20128;-68
2022/01/14 06:10:31;;;;;;;60.50;23.48;;;;;;;7.12;86.38;103612.38;5096269;28;20551;-69
2022/01/14 06:12:57;;;;;;;71.53;24.95;;;;;;;7.56;84.72;103603.09;5096455;28;20475;-69
2022/01/14 06:15:22;;;;;;;85.57;26.17;;;;;;;7.65;84.37;103605.78;5096451;28;20057;-69
2022/01/14 06:17:48;;;;;;;65.57;25.05;;;;;;;7.67;84.07;103619.00;5094426;28;20032;-70
2022/01/14 06:20:13;;;;;;;67.95;24.45;;;;;;;7.57;84.11;103607.44;5095766;28;20107;-69
2022/01/14 06:22:39;;;;;;;70.47;25.50;;;;;;;7.62;83.83;103603.38;5093676;28;20066;-69
2022/01/14 06:25:06;;;;;;;65.53;25.05;;;;;;;7.32;85.02;103616.81;5091144;28;20053;-68
2022/01/14 06:27:32;;;;;;;71.30;26.23;;;;;;;7.63;83.76;103612.25;5087672;28;20101;-69
2022/01/14 06:30:03;;;;;;;71.38;28.05;;;;;;;7.50;84.58;103608.97;5091518;28;20122;-70
2022/01/14 06:32:28;;;;;;;65.00;25.20;;;;;;;7.60;83.83;103602.69;5072010;28;20024;-69
2022/01/14 06:34:54;;;;;;;68.28;25.20;;;;;;;7.50;84.50;103608.97;5083095;28;20036;-69
2022/01/14 06:37:19;;;;;;;71.72;24.65;;;;;;;7.50;84.31;103596.47;5092920;28;20130;-68
2022/01/14 06:39:44;;;;;;;67.20;25.15;;;;;;;7.60;83.90;103594.66;5095517;28;20024;-68
2022/01/14 06:42:10;;;;;;;59.95;23.88;;;;;;;7.53;84.14;103604.19;5090011;28;20123;-68
2022/01/14 06:44:35;;;;;;;57.28;25.83;;;;;;;7.46;84.45;103603.06;5094038;28;20384;-69
2022/01/14 06:47:02;;;;;;;56.10;24.67;;;;;;;7.44;84.47;103598.84;5096199;28;20483;-69
2022/01/14 06:49:28;;;;;;;56.17;23.77;;;;;;;7.37;84.58;103608.41;5094817;28;20127;-69
2022/01/14 06:51:54;;;;;;;54.90;23.30;;;;;;;7.35;84.42;103605.84;5095304;28;20111;-68
2022/01/14 06:54:19;;;;;;;59.90;26.42;;;;;;;7.54;83.73;103602.38;5094207;28;20090;-70
2022/01/14 06:56:44;;;;;;;60.03;26.15;;;;;;;7.31;85.03;103616.97;5096762;28;20495;-68
2022/01/14 06:59:10;;;;;;;54.15;24.85;;;;;;;7.42;84.04;103619.53;5090717;28;20438;-69
2022/01/14 07:01:35;;;;;;;51.25;24.42;;;;;;;7.63;83.43;103629.16;5088743;28;20503;-70
2022/01/14 07:04:01;;;;;;;56.65;24.15;;;;;;;7.64;83.09;103621.97;5092238;28;20379;-68
2022/01/14 07:06:26;;;;;;;63.58;24.90;;;;;;;7.48;84.17;103627.84;5088448;28;20040;-70
2022/01/14 07:08:52;;;;;;;58.40;24.77;;;;;;;6.64;87.43;103627.34;5093711;28;20116;-70
2022/01/14 07:11:18;;;;;;;54.72;27.08;;;;;;;6.44;88.81;103625.50;5094582;28;20387;-69
2022/01/14 07:13:43;;;;;;;55.33;22.63;;;;;;;6.49;88.57;103626.81;5092464;28;20028;-71
2022/01/14 07:16:09;;;;;;;53.28;23.95;;;;;;;6.39;89.19;103638.44;5094393;28;20032;-69
2022/01/14 07:18:34;;;;;;;53.85;25.30;;;;;;;6.36;89.47;103639.53;5094458;28;20036;-70
2022/01/14 07:21:00;;;;;;;47.05;22.25;;;;;;;6.28;89.64;103655.34;5093940;28;20032;-69
2022/01/14 07:23:25;;;;;;;54.45;22.85;;;;;;;6.32;89.16;103647.91;5094369;28;20016;-70
2022/01/14 07:25:50;;;;;;;44.15;22.02;;;;;;;6.43;89.19;103653.22;5094105;28;20036;-69
2022/01/14 07:28:16;;;;;;;66.93;24.00;;;;;;;6.32;89.59;103662.13;5094045;28;20428;-70
2022/01/14 07:30:41;;;;;;;52.42;23.45;;;;;;;6.26;89.46;103649.28;5094213;28;20147;-70
2022/01/14 07:33:07;;;;;;;53.28;24.45;;;;;;;6.36;89.16;103644.00;5094121;28;20051;-71
2022/01/14 07:35:32;;;;;;;48.03;24.33;;;;;;;6.46;88.79;103653.81;5094321;28;20111;-69
2022/01/14 07:37:57;;;;;;;50.20;25.80;;;;;;;6.38;89.19;103656.25;5094056;28;20035;-69
2022/01/14 07:40:23;;;;;;;48.15;24.25;;;;;;;6.17;90.40;103666.06;5093641;28;20052;-70
2022/01/14 07:42:48;;;;;;;49.03;24.25;;;;;;;6.24;90.35;103667.25;5094140;28;20032;-69
2022/01/14 07:45:14;;;;;;;52.53;25.60;;;;;;;6.32;89.70;103661.25;5094143;28;20036;-70
2022/01/14 07:47:39;;;;;;;52.88;25.48;;;;;;;6.31;89.70;103664.94;5094087;28;20036;-69
2022/01/14 07:50:05;;;;;;;44.67;23.70;;;;;;;6.41;89.32;103669.34;5093694;28;20147;-70
2022/01/14 07:52:30;;;;;;;50.30;25.02;;;;;;;6.44;89.47;103665.56;5091387;28;20032;-69
2022/01/14 07:54:56;;;;;;;47.42;25.45;;;;;;;6.32;89.50;103662.13;5086904;28;20036;-69
2022/01/14 07:57:21;;;;;;;46.65;22.65;;;;;;;6.51;89.18;103662.25;5081587;28;20426;-69
2022/01/14 07:59:47;;;;;;;45.95;24.30;;;;;;;6.40;89.10;103666.81;5091639;28;20034;-69
2022/01/14 08:02:13;;;;;;;43.10;24.13;;;;;;;6.48;89.20;103664.34;5091787;28;20133;-69
2022/01/14 08:04:38;;;;;;;48.47;24.35;;;;;;;6.62;88.48;103664.03;5091457;28;20127;-70
2022/01/14 08:07:11;;;;;;;41.88;22.65;;;;;;;6.72;88.05;103659.59;5091573;28;20559;-70
2022/01/14 08:09:42;;;;;;;46.42;24.17;;;;;;;6.64;88.36;103662.06;5090688;28;20036;-69
2022/01/14 08:12:08;;;;;;;39.97;22.67;;;;;;;6.68;87.96;103663.50;5089625;28;20044;-69
2022/01/14 08:14:34;;;;;;;44.50;21.38;;;;;;;6.59;88.16;103664.28;5088936;28;20036;-70
2022/01/14 08:17:00;;;;;;;46.75;22.08;;;;;;;6.64;88.56;103668.28;5091830;28;20131;-69
2022/01/14 08:19:25;;;;;;;52.67;23.25;;;;;;;6.66;88.34;103670.81;5090713;28;20115;-70
2022/01/14 08:21:51;;;;;;;56.78;24.33;;;;;;;6.65;88.36;103672.63;5090921;28;20476;-70
2022/01/14 08:24:16;;;;;;;41.47;22.00;;;;;;;6.74;87.59;103665.66;5085096;28;20140;-68
2022/01/14 08:26:42;;;;;;;39.95;20.17;;;;;;;6.59;88.03;103665.13;5088746;28;20387;-70
2022/01/14 08:29:07;;;;;;;34.72;20.98;;;;;;;6.66;88.42;103665.47;5087686;28;20399;-71
2022/01/14 08:31:32;;;;;;;40.35;20.90;;;;;;;6.73;88.18;103669.28;5071935;28;20119;-69
2022/01/14 08:33:58;;;;;;;38.60;21.55;;;;;;;6.69;88.40;103659.84;5070889;28;20066;-69
2022/01/14 08:36:24;;;;;;;41.30;22.10;;;;;;;6.66;87.97;103668.97;5071368;28;20102;-70
2022/01/14 08:38:51;;;;;;;37.33;20.35;;;;;;;6.65;88.10;103661.09;5070286;28;20031;-69
2022/01/14 08:41:19;;;;;;;41.17;23.05;;;;;;;6.70;88.06;103650.88;5071093;28;20039;-68
2022/01/14 08:43:46;;;;;;;49.90;24.63;;;;;;;6.76;87.66;103661.03;5079633;28;20044;-69
2022/01/14 08:46:12;;;;;;;35.97;22.58;;;;;;;6.78;87.57;103661.75;5089852;28;20051;-69
2022/01/14 08:48:37;;;;;;;37.75;22.55;;;;;;;6.82;87.28;103658.66;5090381;28;20040;-68
2022/01/14 08:51:03;;;;;;;32.33;21.90;;;;;;;6.79;87.55;103660.75;5088402;28;20405;-71
2022/01/14 08:53:28;;;;;;;38.70;23.83;;;;;;;6.84;87.45;103650.53;5080260;28;20063;-69
2022/01/14 08:55:54;;;;;;;42.65;22.40;;;;;;;6.92;87.13;103664.91;5089977;28;20115;-69
2022/01/14 08:58:19;;;;;;;42.20;24.33;;;;;;;6.92;87.00;103664.06;5089823;28;20107;-69
2022/01/14 09:00:44;;;;;;;40.00;25.30;;;;;;;7.05;86.68;103667.38;5090230;28;20038;-70
2022/01/14 09:03:10;;;;;;;44.55;26.08;;;;;;;6.93;86.96;103666.63;5090232;28;20031;-68
2022/01/14 09:05:35;;;;;;;42.17;22.00;;;;;;;6.97;87.02;103681.41;5091221;28;20104;-68
2022/01/14 09:08:01;;;;;;;36.58;21.88;;;;;;;7.06;86.58;103680.63;5090212;28;20506;-69
2022/01/14 09:10:27;;;;;;;42.15;21.88;;;;;;;7.19;85.98;103680.41;5088448;28;20030;-72
2022/01/14 09:12:53;;;;;;;34.22;21.17;;;;;;;7.20;85.85;103678.56;5091133;28;20035;-69
2022/01/14 09:15:18;;;;;;;39.00;20.67;;;;;;;7.24;85.88;103682.66;5090326;28;20150;-69
2022/01/14 09:17:44;;;;;;;40.38;21.92;;;;;;;7.17;86.22;103682.38;5091151;28;20030;-69
2022/01/14 09:20:13;;;;;;;38.60;21.48;;;;;;;7.18;85.88;103684.03;5091039;28;20475;-71
2022/01/14 09:22:40;;;;;;;31.80;20.48;;;;;;;7.33;85.56;103677.34;5080187;28;20068;-68
2022/01/14 09:25:07;;;;;;;32.72;20.08;;;;;;;7.27;85.45;103672.56;5087329;28;20479;-69
2022/01/14 09:27:33;;;;;;;46.08;22.60;;;;;;;7.30;85.34;103669.59;5090827;28;20028;-68
2022/01/14 09:30:01;;;;;;;36.42;20.23;;;;;;;7.18;85.87;103670.66;5076326;28;20043;-69
2022/01/14 09:32:26;;;;;;;33.75;19.75;;;;;;;7.27;85.66;103664.53;5071109;28;20431;-69
2022/01/14 09:34:52;;;;;;;34.67;21.15;;;;;;;7.32;85.44;103664.13;5070698;28;20032;-69
2022/01/14 09:37:18;;;;;;;33.65;19.63;;;;;;;7.36;85.37;103661.03;5072868;28;20464;-71
2022/01/14 09:39:43;;;;;;;31.27;19.52;;;;;;;7.40;85.23;103661.63;5088252;28;20036;-70
2022/01/14 09:42:10;;;;;;;32.95;19.05;;;;;;;7.49;85.09;103668.84;5079642;28;20490;-68
2022/01/14 09:44:36;;;;;;;36.25;19.30;;;;;;;7.40;85.21;103666.97;5071887;28;20094;-69
2022/01/14 09:47:02;;;;;;;37.58;19.95;;;;;;;7.50;84.74;103671.38;5069834;28;20048;-72
2022/01/14 09:49:28;;;;;;;31.42;17.88;;;;;;;7.57;84.41;103672.50;5070612;28;20082;-69
2022/01/14 09:51:54;;;;;;;35.17;20.20;;;;;;;7.56;84.94;103678.84;5071538;28;20028;-70
2022/01/14 09:54:19;;;;;;;36.13;19.77;;;;;;;7.73;83.83;103680.00;5084347;28;20059;-70
2022/01/14 09:56:45;;;;;;;38.20;19.38;;;;;;;7.52;84.74;103668.56;5071004;28;20387;-72
2022/01/14 09:59:10;;;;;;;34.60;18.50;;;;;;;7.56;84.50;103678.84;5079961;28;20024;-70
2022/01/14 10:01:39;;;;;;;40.97;19.58;;;;;;;7.62;84.26;103672.97;5087310;28;20036;-69
2022/01/14 10:04:04;;;;;;;34.63;18.33;;;;;;;7.62;84.51;103672.09;5090343;28;20051;-70
2022/01/14 10:06:54;;;;;;;35.58;19.58;;;;;;;7.74;83.73;103668.34;5077141;28;20420;-70
2022/01/14 10:09:25;;;;;;;43.60;19.58;;;;;;;7.62;84.15;103675.63;5075825;28;20094;-70
2022/01/14 10:12:04;;;;;;;31.55;18.73;;;;;;;7.63;84.25;103680.00;5090437;28;20050;-69
2022/01/14 10:14:30;;;;;;;33.10;18.38;;;;;;;7.70;83.90;103685.66;5083247;28;20376;-69
2022/01/14 10:16:58;;;;;;;28.30;18.60;;;;;;;7.79;83.77;103688.34;5070198;28;20028;-69
2022/01/14 10:19:25;;;;;;;37.88;19.15;;;;;;;7.64;84.18;103695.09;5069973;28;20488;-68
2022/01/14 10:21:51;;;;;;;37.63;19.80;;;;;;;7.79;83.97;103683.00;5089950;28;20148;-69
2022/01/14 10:24:18;;;;;;;33.60;21.15;;;;;;;7.88;83.63;103689.38;5074182;28;20531;-68
2022/01/14 10:26:58;;;;;;;34.15;20.02;;;;;;;7.76;83.51;103696.63;5070732;28;20028;-69
2022/01/14 10:29:32;;;;;;;29.63;20.48;;;;;;;7.73;84.10;103691.56;5070283;28;20060;-68
2022/01/14 10:32:00;;;;;;;32.30;18.40;;;;;;;7.75;84.14;103694.97;5070146;28;20044;-69
2022/01/14 10:34:26;;;;;;;33.83;17.17;;;;;;;7.83;83.34;103692.44;5080738;28;20040;-69
2022/01/14 10:37:11;;;;;;;30.80;17.73;;;;;;;7.86;83.64;103694.84;5089966;28;20123;-69
2022/01/14 10:39:54;;;;;;;35.22;17.63;;;;;;;8.02;82.90;103691.63;5089113;28;20071;-69
2022/01/14 10:42:31;;;;;;;27.65;17.38;;;;;;;7.96;83.26;103694.84;5087934;28;20120;-69
2022/01/14 10:45:20;;;;;;;39.95;18.05;;;;;;;8.09;83.22;103689.25;5087549;28;20443;-70
2022/01/14 10:47:56;;;;;;;36.40;18.90;;;;;;;7.92;83.69;103696.13;5089025;28;20040;-69
2022/01/14 10:50:36;;;;;;;39.47;18.17;;;;;;;7.99;83.48;103691.91;5093045;28;20052;-70
2022/01/14 10:53:13;;;;;;;35.88;17.77;;;;;;;7.99;83.44;103691.91;5090240;28;20039;-71
2022/01/14 10:55:43;;;;;;;41.47;16.98;;;;;;;8.13;82.94;103694.19;5090689;28;20032;-70
2022/01/14 10:58:14;;;;;;;33.15;16.20;;;;;;;8.07;83.39;103685.84;5090763;28;20043;-71
2022/01/14 11:00:46;;;;;;;32.85;16.23;;;;;;;8.09;83.36;103682.06;5092055;28;20045;-69
2022/01/14 11:03:11;;;;;;;30.80;15.57;;;;;;;8.19;82.87;103688.28;5092030;28;20506;-69
2022/01/14 11:05:37;;;;;;;27.20;16.05;;;;;;;8.27;82.28;103679.56;5094474;28;20103;-69
2022/01/14 11:08:03;;;;;;;32.22;16.20;;;;;;;8.29;82.36;103673.09;5092454;28;20083;-68
2022/01/14 11:10:33;;;;;;;30.30;15.80;;;;;;;8.26;82.90;103681.41;5091770;28;20048;-70
2022/01/14 11:13:00;;;;;;;31.23;14.60;;;;;;;8.32;82.24;103674.63;5093186;28;20060;-69
2022/01/14 11:15:28;;;;;;;37.63;15.65;;;;;;;8.17;82.00;103665.28;5090239;28;20043;-69
2022/01/14 11:17:55;;;;;;;22.30;12.95;;;;;;;8.22;82.19;103676.41;5089682;28;20375;-69
2022/01/14 11:20:30;;;;;;;45.80;15.95;;;;;;;8.30;82.33;103676.59;5093529;28;20055;-70
2022/01/14 11:23:15;;;;;;;35.38;15.02;;;;;;;8.25;82.45;103679.72;5092820;28;20341;-70
2022/01/14 11:25:50;;;;;;;32.00;14.38;;;;;;;8.19;82.19;103677.56;5089219;28;20475;-69
2022/01/14 11:28:19;;;;;;;37.72;14.75;;;;;;;8.16;83.22;103676.97;5081281;28;20048;-70
2022/01/14 11:30:45;;;;;;;30.55;14.43;;;;;;;8.36;82.38;103676.88;5073005;28;20028;-69
2022/01/14 11:33:14;;;;;;;27.15;14.95;;;;;;;8.44;81.74;103666.31;5072648;28;20024;-70
2022/01/14 11:35:39;;;;;;;26.92;14.20;;;;;;;8.50;81.94;103662.22;5077573;28;20032;-68